Saint Joseph, MO (64507)

6:27 PM CDT on July 24, 2016 (GMT -0500)
Horn Heights | | Change Station

Elev 951 ft 39.74 °N, 94.84 °W | Updated 9 seconds ago

Mostly Cloudy
Mostly Cloudy
83.6 °F
Feels Like 91 °F
N
2.0
Wind Variable Wind from NE
Gusts 8.0 mph

Today
High -- | Low -- °F
--% Chance of Precip.
Yesterday
High -- | Low -- °F
Precip. -- in
Pressure 29.95 in
Visibility 10.0 miles
Clouds Scattered Clouds 2700 ft
Mostly Cloudy 3400 ft
Heat Index 91 °F
Dew Point 74 °F
Humidity 73%
Rainfall 0.00 in
Snow Depth Not available.
6:11 AM 8:39 PM
Waning Gibbous, 72% visible
METAR KSTJ 242253Z AUTO 35009KT 10SM SCT027 BKN034 28/24 A2998 RMK AO2 SLP142 T02830239 $
Pressure 29.95 in
Visibility 10.0 miles
Clouds Scattered Clouds 2700 ft
Mostly Cloudy 3400 ft
Heat Index 91 °F
Dew Point 74 °F
Humidity 73%
Rainfall 0.00 in
Snow Depth Not available.
6:11 AM 8:39 PM
Waning Gibbous, 72% visible
METAR KSTJ 242253Z AUTO 35009KT 10SM SCT027 BKN034 28/24 A2998 RMK AO2 SLP142 T02830239 $

10-Day Weather Forecast

Almanac

Astronomy

Jul. 24, 2016 Rise Set
Actual Time
Civil Twilight
Nautical Twilight
Astronomical Twilight
Moon
Length of Visible Light
Length of Day
Tomorrow will be .
, % of the Moon is Illuminated

Today's Extremes

State Highs State Lows

Community

WunderPhotos

Upload Photos

1,927,205 photos uploaded!

WunderBlog® & News

Nearby

Air Quality

  Air Quality AQ Index Pollutant
Not available.

Snow Depth

Station Depth Elevation

Earthquake Activity

City Distance Mag. Time & Date
Minimum magnitude displayed is 2.5.

Coastal Water Temperatures

Place Temperature

Stations

Nearby Weather Stations

Station Location Temp. Windchill Dew Point Humidity Wind Precip. Elev Updated Type
                   

Watches & Warnings

There are currently no watches in effect.